Grimstead, Virginia
Current Conditions -  °F | °C
As of 6:55 PM on Monday 20 Oct 2014 (Local Time) from KW75 Reporting Station
Clear Clear  
Wind Chill: 15°   Ceiling: Unl
Heat Index: 15°   Visibility: 10mi
Dew Point:   Wind: 6mph
Humidity: 55%   Direction: 180°S
Pressure: 29.98"   Gusts: NA
Location:  37.5°N, 76.3°W
Report Text: KW75 202255Z AUTO 18005KT 10SM CLR 15/06 A2998 RMK AO1 T01450055
Loading
Personal Weather Stations






























Interactive Weather Map
Tropical Storm Tracking
New forecast layout! Learn more

10-Day Weather Forecast

Advertisements
Track Severe Weather on mobile